sensor_id;sensor_type;location;lat;lon;timestamp;pressure;altitude;pressure_sealevel;temperature;humidity
17525;BME280;40431;52.198;9.902;2022-07-23T00:00:06;100906.41;;;16.79;94.73
17525;BME280;40431;52.198;9.902;2022-07-23T00:02:33;100905.66;;;16.89;94.18
17525;BME280;40431;52.198;9.902;2022-07-23T00:04:59;100905.78;;;16.98;94.48
17525;BME280;40431;52.198;9.902;2022-07-23T00:07:25;100902.66;;;17.03;94.22
17525;BME280;40431;52.198;9.902;2022-07-23T00:09:55;100895.69;;;17.10;94.14
17525;BME280;40431;52.198;9.902;2022-07-23T00:12:21;100895.91;;;17.18;94.04
17525;BME280;40431;52.198;9.902;2022-07-23T00:14:48;100904.63;;;17.24;93.44
17525;BME280;40431;52.198;9.902;2022-07-23T00:17:16;100895.13;;;17.28;93.49
17525;BME280;40431;52.198;9.902;2022-07-23T00:19:42;100897.50;;;17.32;93.69
17525;BME280;40431;52.198;9.902;2022-07-23T00:22:08;100895.47;;;17.34;93.33
17525;BME280;40431;52.198;9.902;2022-07-23T00:24:35;100893.59;;;17.35;92.75
17525;BME280;40431;52.198;9.902;2022-07-23T00:27:01;100899.56;;;17.40;93.30
17525;BME280;40431;52.198;9.902;2022-07-23T00:29:28;100892.59;;;17.36;92.45
17525;BME280;40431;52.198;9.902;2022-07-23T00:31:54;100900.09;;;17.34;92.43
17525;BME280;40431;52.198;9.902;2022-07-23T00:34:22;100905.31;;;17.37;92.28
17525;BME280;40431;52.198;9.902;2022-07-23T00:36:50;100907.31;;;17.35;92.54
17525;BME280;40431;52.198;9.902;2022-07-23T00:39:18;100901.81;;;17.35;92.44
17525;BME280;40431;52.198;9.902;2022-07-23T00:41:46;100893.38;;;17.38;92.62
17525;BME280;40431;52.198;9.902;2022-07-23T00:44:18;100895.22;;;17.38;92.25
17525;BME280;40431;52.198;9.902;2022-07-23T00:46:45;100904.19;;;17.40;92.33
17525;BME280;40431;52.198;9.902;2022-07-23T00:49:12;100902.72;;;17.35;91.87
17525;BME280;40431;52.198;9.902;2022-07-23T00:51:41;100903.97;;;17.31;91.82
17525;BME280;40431;52.198;9.902;2022-07-23T00:54:07;100909.31;;;17.33;92.76
17525;BME280;40431;52.198;9.902;2022-07-23T00:56:34;100906.72;;;17.31;92.30
17525;BME280;40431;52.198;9.902;2022-07-23T00:59:01;100906.09;;;17.28;92.38
17525;BME280;40431;52.198;9.902;2022-07-23T01:01:28;100903.34;;;17.28;93.28
17525;BME280;40431;52.198;9.902;2022-07-23T01:03:57;100909.81;;;17.27;92.68
17525;BME280;40431;52.198;9.902;2022-07-23T01:06:26;100901.13;;;17.22;92.83
17525;BME280;40431;52.198;9.902;2022-07-23T01:08:54;100912.84;;;17.24;93.87
17525;BME280;40431;52.198;9.902;2022-07-23T01:11:22;100912.34;;;17.30;94.03
17525;BME280;40431;52.198;9.902;2022-07-23T01:13:49;100896.88;;;17.29;94.24
17525;BME280;40431;52.198;9.902;2022-07-23T01:16:16;100889.03;;;17.24;92.84
17525;BME280;40431;52.198;9.902;2022-07-23T01:18:45;100876.59;;;17.20;91.97
17525;BME280;40431;52.198;9.902;2022-07-23T01:21:12;100872.22;;;17.17;92.13
17525;BME280;40431;52.198;9.902;2022-07-23T01:23:40;100876.22;;;17.13;91.98
17525;BME280;40431;52.198;9.902;2022-07-23T01:26:08;100878.63;;;17.07;92.57
17525;BME280;40431;52.198;9.902;2022-07-23T01:28:34;100875.53;;;17.00;92.72
17525;BME280;40431;52.198;9.902;2022-07-23T01:31:01;100854.59;;;16.88;92.52
17525;BME280;40431;52.198;9.902;2022-07-23T01:33:27;100847.66;;;16.72;92.99
17525;BME280;40431;52.198;9.902;2022-07-23T01:35:54;100843.69;;;16.65;93.60
17525;BME280;40431;52.198;9.902;2022-07-23T01:38:23;100842.44;;;16.58;93.84
17525;BME280;40431;52.198;9.902;2022-07-23T01:40:51;100841.06;;;16.52;94.32
17525;BME280;40431;52.198;9.902;2022-07-23T01:43:17;100857.63;;;16.50;95.13
17525;BME280;40431;52.198;9.902;2022-07-23T01:45:43;100855.78;;;16.40;94.98
17525;BME280;40431;52.198;9.902;2022-07-23T01:48:10;100852.16;;;16.28;95.94
17525;BME280;40431;52.198;9.902;2022-07-23T01:50:36;100856.34;;;16.20;96.96
17525;BME280;40431;52.198;9.902;2022-07-23T01:53:02;100839.34;;;16.17;96.88
17525;BME280;40431;52.198;9.902;2022-07-23T01:55:29;100844.19;;;16.13;97.09
17525;BME280;40431;52.198;9.902;2022-07-23T01:57:57;100854.88;;;16.16;97.08
17525;BME280;40431;52.198;9.902;2022-07-23T02:00:23;100851.16;;;16.17;97.22
17525;BME280;40431;52.198;9.902;2022-07-23T02:02:49;100852.38;;;16.13;97.01
17525;BME280;40431;52.198;9.902;2022-07-23T02:05:16;100851.25;;;16.05;97.41
17525;BME280;40431;52.198;9.902;2022-07-23T02:07:43;100854.84;;;15.94;98.28
17525;BME280;40431;52.198;9.902;2022-07-23T02:10:09;100868.63;;;15.92;99.49
17525;BME280;40431;52.198;9.902;2022-07-23T02:12:39;100866.88;;;15.91;100.00
17525;BME280;40431;52.198;9.902;2022-07-23T02:15:07;100869.50;;;15.93;100.00
17525;BME280;40431;52.198;9.902;2022-07-23T02:17:34;100868.63;;;15.92;100.00
17525;BME280;40431;52.198;9.902;2022-07-23T02:20:00;100857.31;;;15.85;100.00
17525;BME280;40431;52.198;9.902;2022-07-23T02:22:27;100851.09;;;15.83;100.00
17525;BME280;40431;52.198;9.902;2022-07-23T02:24:53;100875.03;;;15.80;100.00
17525;BME280;40431;52.198;9.902;2022-07-23T02:27:19;100876.56;;;15.84;100.00
17525;BME280;40431;52.198;9.902;2022-07-23T02:29:46;100862.66;;;15.87;100.00
17525;BME280;40431;52.198;9.902;2022-07-23T02:32:14;100869.75;;;15.90;100.00
17525;BME280;40431;52.198;9.902;2022-07-23T02:34:41;100867.53;;;15.95;100.00
17525;BME280;40431;52.198;9.902;2022-07-23T02:37:07;100872.75;;;15.98;100.00
17525;BME280;40431;52.198;9.902;2022-07-23T02:39:34;100876.50;;;15.97;100.00
17525;BME280;40431;52.198;9.902;2022-07-23T02:42:01;100883.41;;;15.90;100.00
17525;BME280;40431;52.198;9.902;2022-07-23T02:44:28;100890.13;;;15.85;100.00
17525;BME280;40431;52.198;9.902;2022-07-23T02:46:54;100891.34;;;15.81;100.00
17525;BME280;40431;52.198;9.902;2022-07-23T02:49:23;100892.13;;;15.83;100.00
17525;BME280;40431;52.198;9.902;2022-07-23T02:51:49;100872.97;;;15.83;100.00
17525;BME280;40431;52.198;9.902;2022-07-23T02:54:15;100877.44;;;15.84;100.00
17525;BME280;40431;52.198;9.902;2022-07-23T02:56:42;100871.34;;;15.81;100.00
17525;BME280;40431;52.198;9.902;2022-07-23T02:59:09;100872.97;;;15.83;100.00
17525;BME280;40431;52.198;9.902;2022-07-23T03:01:36;100866.84;;;15.80;100.00
17525;BME280;40431;52.198;9.902;2022-07-23T03:04:05;100861.28;;;15.81;100.00
17525;BME280;40431;52.198;9.902;2022-07-23T03:06:33;100863.03;;;15.82;100.00
17525;BME280;40431;52.198;9.902;2022-07-23T03:08:59;100870.00;;;15.86;100.00
17525;BME280;40431;52.198;9.902;2022-07-23T03:11:25;100872.47;;;15.90;100.00
17525;BME280;40431;52.198;9.902;2022-07-23T03:13:52;100872.34;;;15.91;100.00
17525;BME280;40431;52.198;9.902;2022-07-23T03:16:18;100874.63;;;15.97;100.00
17525;BME280;40431;52.198;9.902;2022-07-23T03:18:44;100873.88;;;16.07;100.00
17525;BME280;40431;52.198;9.902;2022-07-23T03:21:11;100861.56;;;16.12;100.00
17525;BME280;40431;52.198;9.902;2022-07-23T03:23:39;100857.47;;;16.18;99.43
17525;BME280;40431;52.198;9.902;2022-07-23T03:26:05;100857.25;;;16.21;98.41
17525;BME280;40431;52.198;9.902;2022-07-23T03:28:32;100865.06;;;16.26;97.37
17525;BME280;40431;52.198;9.902;2022-07-23T03:30:59;100858.50;;;16.28;97.43
17525;BME280;40431;52.198;9.902;2022-07-23T03:33:25;100856.38;;;16.32;96.71
17525;BME280;40431;52.198;9.902;2022-07-23T03:35:53;100850.16;;;16.30;96.41
17525;BME280;40431;52.198;9.902;2022-07-23T03:38:19;100837.84;;;16.35;97.15
17525;BME280;40431;52.198;9.902;2022-07-23T03:40:47;100839.94;;;16.43;99.19
17525;BME280;40431;52.198;9.902;2022-07-23T03:43:13;100845.31;;;16.45;98.51
17525;BME280;40431;52.198;9.902;2022-07-23T03:45:39;100849.78;;;16.46;97.74
17525;BME280;40431;52.198;9.902;2022-07-23T03:48:06;100834.47;;;16.43;96.81
17525;BME280;40431;52.198;9.902;2022-07-23T03:50:32;100836.13;;;16.34;96.59
17525;BME280;40431;52.198;9.902;2022-07-23T03:52:59;100833.25;;;16.36;97.15
17525;BME280;40431;52.198;9.902;2022-07-23T03:55:26;100838.47;;;16.39;98.83
17525;BME280;40431;52.198;9.902;2022-07-23T03:57:53;100844.69;;;16.41;99.00
17525;BME280;40431;52.198;9.902;2022-07-23T04:00:20;100846.44;;;16.42;98.20
17525;BME280;40431;52.198;9.902;2022-07-23T04:02:46;100859.00;;;16.45;98.05
17525;BME280;40431;52.198;9.902;2022-07-23T04:05:12;100856.88;;;16.48;98.55
17525;BME280;40431;52.198;9.902;2022-07-23T04:07:39;100842.94;;;16.51;97.55
17525;BME280;40431;52.198;9.902;2022-07-23T04:10:06;100845.69;;;16.40;96.65
17525;BME280;40431;52.198;9.902;2022-07-23T04:12:33;100847.91;;;16.35;97.24
17525;BME280;40431;52.198;9.902;2022-07-23T04:15:00;100833.13;;;16.38;97.42
17525;BME280;40431;52.198;9.902;2022-07-23T04:17:27;100828.91;;;16.45;98.24
17525;BME280;40431;52.198;9.902;2022-07-23T04:19:53;100835.47;;;16.53;98.42
17525;BME280;40431;52.198;9.902;2022-07-23T04:22:20;100836.72;;;16.61;98.90
17525;BME280;40431;52.198;9.902;2022-07-23T04:24:46;100849.16;;;16.65;99.14
17525;BME280;40431;52.198;9.902;2022-07-23T04:27:14;100842.16;;;16.72;98.44
17525;BME280;40431;52.198;9.902;2022-07-23T04:29:40;100836.69;;;16.72;96.93
17525;BME280;40431;52.198;9.902;2022-07-23T04:32:08;100826.28;;;16.66;95.55
17525;BME280;40431;52.198;9.902;2022-07-23T04:34:34;100823.03;;;16.49;95.14
17525;BME280;40431;52.198;9.902;2022-07-23T04:37:01;100829.28;;;16.51;96.58
17525;BME280;40431;52.198;9.902;2022-07-23T04:39:28;100850.78;;;16.56;97.23
17525;BME280;40431;52.198;9.902;2022-07-23T04:41:54;100869.31;;;16.52;97.11
17525;BME280;40431;52.198;9.902;2022-07-23T04:44:21;100860.13;;;16.42;96.77
17525;BME280;40431;52.198;9.902;2022-07-23T04:46:47;100864.84;;;16.29;97.90
17525;BME280;40431;52.198;9.902;2022-07-23T04:49:15;100863.97;;;16.28;98.83
17525;BME280;40431;52.198;9.902;2022-07-23T04:51:41;100864.94;;;16.27;99.07
17525;BME280;40431;52.198;9.902;2022-07-23T04:54:07;100864.47;;;16.22;99.15
17525;BME280;40431;52.198;9.902;2022-07-23T04:56:34;100863.06;;;16.16;100.00
17525;BME280;40431;52.198;9.902;2022-07-23T04:59:00;100880.25;;;16.18;100.00
17525;BME280;40431;52.198;9.902;2022-07-23T05:01:27;100878.50;;;16.17;100.00
17525;BME280;40431;52.198;9.902;2022-07-23T05:03:53;100880.25;;;16.18;100.00
17525;BME280;40431;52.198;9.902;2022-07-23T05:06:21;100875.50;;;16.09;100.00
17525;BME280;40431;52.198;9.902;2022-07-23T05:08:47;100871.78;;;16.10;100.00
17525;BME280;40431;52.198;9.902;2022-07-23T05:11:19;100872.66;;;16.11;100.00
17525;BME280;40431;52.198;9.902;2022-07-23T05:13:45;100868.41;;;16.07;100.00
17525;BME280;40431;52.198;9.902;2022-07-23T05:16:11;100868.53;;;16.05;100.00
17525;BME280;40431;52.198;9.902;2022-07-23T05:18:38;100866.03;;;16.02;100.00
17525;BME280;40431;52.198;9.902;2022-07-23T05:21:04;100868.41;;;16.07;100.00
17525;BME280;40431;52.198;9.902;2022-07-23T05:23:33;100870.78;;;16.11;100.00
17525;BME280;40431;52.198;9.902;2022-07-23T05:26:01;100870.91;;;16.10;100.00
17525;BME280;40431;52.198;9.902;2022-07-23T05:28:28;100880.34;;;16.06;100.00
17525;BME280;40431;52.198;9.902;2022-07-23T05:30:54;100876.75;;;16.16;100.00
17525;BME280;40431;52.198;9.902;2022-07-23T05:33:21;100869.94;;;16.22;100.00
17525;BME280;40431;52.198;9.902;2022-07-23T05:35:47;100874.56;;;16.33;100.00
17525;BME280;40431;52.198;9.902;2022-07-23T05:38:13;100880.00;;;16.44;100.00
17525;BME280;40431;52.198;9.902;2022-07-23T05:40:41;100874.44;;;16.57;100.00
17525;BME280;40431;52.198;9.902;2022-07-23T05:43:08;100879.78;;;16.70;100.00
17525;BME280;40431;52.198;9.902;2022-07-23T05:45:35;100872.56;;;16.69;99.12
17525;BME280;40431;52.198;9.902;2022-07-23T05:48:02;100871.31;;;16.73;99.42
17525;BME280;40431;52.198;9.902;2022-07-23T05:50:28;100875.53;;;16.77;99.38
17525;BME280;40431;52.198;9.902;2022-07-23T05:52:55;100877.53;;;16.75;96.78
17525;BME280;40431;52.198;9.902;2022-07-23T05:55:21;100868.81;;;16.70;98.24
17525;BME280;40431;52.198;9.902;2022-07-23T05:57:49;100887.09;;;16.69;98.14
17525;BME280;40431;52.198;9.902;2022-07-23T06:00:15;100879.25;;;16.76;97.45
17525;BME280;40431;52.198;9.902;2022-07-23T06:02:42;100880.88;;;16.79;97.71
17525;BME280;40431;52.198;9.902;2022-07-23T06:05:08;100882.50;;;16.81;98.20
17525;BME280;40431;52.198;9.902;2022-07-23T06:07:35;100886.47;;;16.89;98.51
17525;BME280;40431;52.198;9.902;2022-07-23T06:10:02;100886.22;;;17.03;98.54
17525;BME280;40431;52.198;9.902;2022-07-23T06:12:29;100889.81;;;17.15;97.56
17525;BME280;40431;52.198;9.902;2022-07-23T06:14:57;100892.41;;;17.28;98.42
17525;BME280;40431;52.198;9.902;2022-07-23T06:17:23;100888.22;;;17.45;94.37
17525;BME280;40431;52.198;9.902;2022-07-23T06:19:50;100897.41;;;17.55;91.79
17525;BME280;40431;52.198;9.902;2022-07-23T06:22:16;100890.41;;;17.62;92.47
17525;BME280;40431;52.198;9.902;2022-07-23T06:24:42;100889.75;;;17.70;88.79
17525;BME280;40431;52.198;9.902;2022-07-23T06:27:09;100886.00;;;17.71;85.66
17525;BME280;40431;52.198;9.902;2022-07-23T06:29:35;100881.53;;;17.70;85.99
17525;BME280;40431;52.198;9.902;2022-07-23T06:32:03;100886.69;;;17.84;85.87
17525;BME280;40431;52.198;9.902;2022-07-23T06:34:29;100887.63;;;17.95;86.63
17525;BME280;40431;52.198;9.902;2022-07-23T06:36:56;100876.56;;;17.96;83.49
17525;BME280;40431;52.198;9.902;2022-07-23T06:39:22;100889.47;;;18.06;82.64
17525;BME280;40431;52.198;9.902;2022-07-23T06:41:49;100894.06;;;18.05;82.11
17525;BME280;40431;52.198;9.902;2022-07-23T06:44:15;100906.59;;;18.19;82.71
17525;BME280;40431;52.198;9.902;2022-07-23T06:46:41;100894.41;;;18.12;79.97
17525;BME280;40431;52.198;9.902;2022-07-23T06:49:09;100889.31;;;18.28;80.17
17525;BME280;40431;52.198;9.902;2022-07-23T06:51:35;100901.63;;;18.34;78.82
17525;BME280;40431;52.198;9.902;2022-07-23T06:54:02;100890.44;;;18.47;78.77
17525;BME280;40431;52.198;9.902;2022-07-23T06:56:29;100892.91;;;18.60;77.87
17525;BME280;40431;52.198;9.902;2022-07-23T06:58:55;100899.56;;;18.57;77.87
17525;BME280;40431;52.198;9.902;2022-07-23T07:01:22;100896.94;;;18.56;77.27
17525;BME280;40431;52.198;9.902;2022-07-23T07:03:48;100894.56;;;18.41;77.78
17525;BME280;40431;52.198;9.902;2022-07-23T07:06:16;100891.72;;;18.43;76.99
17525;BME280;40431;52.198;9.902;2022-07-23T07:08:42;100885.78;;;18.47;76.96
17525;BME280;40431;52.198;9.902;2022-07-23T07:11:09;100893.97;;;18.68;76.47
17525;BME280;40431;52.198;9.902;2022-07-23T07:13:35;100906.34;;;18.84;76.38
17525;BME280;40431;52.198;9.902;2022-07-23T07:16:02;100909.00;;;18.95;75.66
17525;BME280;40431;52.198;9.902;2022-07-23T07:18:28;100901.50;;;19.07;74.31
17525;BME280;40431;52.198;9.902;2022-07-23T07:20:55;100908.16;;;19.05;73.76
17525;BME280;40431;52.198;9.902;2022-07-23T07:23:23;100909.91;;;19.15;75.58
17525;BME280;40431;52.198;9.902;2022-07-23T07:25:50;100903.34;;;18.97;74.01
17525;BME280;40431;52.198;9.902;2022-07-23T07:28:16;100914.69;;;19.13;75.14
17525;BME280;40431;52.198;9.902;2022-07-23T07:30:42;100913.41;;;19.17;74.38
17525;BME280;40431;52.198;9.902;2022-07-23T07:33:09;100913.13;;;19.21;74.35
17525;BME280;40431;52.198;9.902;2022-07-23T07:35:35;100907.63;;;19.30;73.41
17525;BME280;40431;52.198;9.902;2022-07-23T07:38:02;100912.56;;;19.46;73.71
17525;BME280;40431;52.198;9.902;2022-07-23T07:40:29;100916.00;;;19.29;70.74
17525;BME280;40431;52.198;9.902;2022-07-23T07:42:56;100912.41;;;19.18;70.73
17525;BME280;40431;52.198;9.902;2022-07-23T07:45:23;100913.50;;;19.06;71.91
17525;BME280;40431;52.198;9.902;2022-07-23T07:47:50;100911.81;;;19.25;71.01
17525;BME280;40431;52.198;9.902;2022-07-23T07:50:17;100913.13;;;19.30;70.70
17525;BME280;40431;52.198;9.902;2022-07-23T07:52:43;100921.50;;;19.29;69.64
17525;BME280;40431;52.198;9.902;2022-07-23T07:55:11;100922.09;;;19.23;70.05
17525;BME280;40431;52.198;9.902;2022-07-23T07:57:38;100920.38;;;19.31;70.64
17525;BME280;40431;52.198;9.902;2022-07-23T08:00:07;100918.06;;;19.46;68.96
17525;BME280;40431;52.198;9.902;2022-07-23T08:02:40;100924.47;;;19.47;67.70
17525;BME280;40431;52.198;9.902;2022-07-23T08:05:07;100917.50;;;19.52;68.21
17525;BME280;40431;52.198;9.902;2022-07-23T08:07:33;100930.59;;;19.90;68.69
17525;BME280;40431;52.198;9.902;2022-07-23T08:10:00;100935.47;;;20.15;69.09
17525;BME280;40431;52.198;9.902;2022-07-23T08:12:26;100937.94;;;20.18;66.78
17525;BME280;40431;52.198;9.902;2022-07-23T08:14:54;100935.06;;;20.10;65.54
17525;BME280;40431;52.198;9.902;2022-07-23T08:17:20;100932.59;;;20.07;65.83
17525;BME280;40431;52.198;9.902;2022-07-23T08:19:46;100935.22;;;19.99;66.52
17525;BME280;40431;52.198;9.902;2022-07-23T08:22:13;100930.72;;;19.98;67.58
17525;BME280;40431;52.198;9.902;2022-07-23T08:24:39;100937.53;;;20.13;67.81
17525;BME280;40431;52.198;9.902;2022-07-23T08:27:05;100936.22;;;20.17;66.39
17525;BME280;40431;52.198;9.902;2022-07-23T08:29:32;100940.72;;;20.18;66.75
17525;BME280;40431;52.198;9.902;2022-07-23T08:31:59;100938.97;;;20.17;66.86
17525;BME280;40431;52.198;9.902;2022-07-23T08:34:26;100938.09;;;20.07;65.84
17525;BME280;40431;52.198;9.902;2022-07-23T08:36:52;100937.34;;;20.25;66.94
17525;BME280;40431;52.198;9.902;2022-07-23T08:39:19;100942.72;;;20.16;65.17
17525;BME280;40431;52.198;9.902;2022-07-23T08:41:45;100936.88;;;20.39;65.35
17525;BME280;40431;52.198;9.902;2022-07-23T08:44:15;100953.41;;;20.49;62.84
17525;BME280;40431;52.198;9.902;2022-07-23T08:46:45;100950.06;;;20.45;62.80
17525;BME280;40431;52.198;9.902;2022-07-23T08:49:13;100947.97;;;20.67;64.20
17525;BME280;40431;52.198;9.902;2022-07-23T08:51:40;100940.56;;;20.77;62.95
17525;BME280;40431;52.198;9.902;2022-07-23T08:54:07;100947.44;;;21.01;63.98
17525;BME280;40431;52.198;9.902;2022-07-23T08:56:34;100941.69;;;20.84;62.40
17525;BME280;40431;52.198;9.902;2022-07-23T08:59:01;100942.91;;;20.62;62.19
17525;BME280;40431;52.198;9.902;2022-07-23T09:01:27;100951.19;;;20.72;63.46
17525;BME280;40431;52.198;9.902;2022-07-23T09:03:54;100948.69;;;20.79;62.19
17525;BME280;40431;52.198;9.902;2022-07-23T09:06:21;100939.34;;;20.90;61.71
17525;BME280;40431;52.198;9.902;2022-07-23T09:08:48;100933.94;;;20.98;60.18
17525;BME280;40431;52.198;9.902;2022-07-23T09:11:16;100937.50;;;21.18;60.52
17525;BME280;40431;52.198;9.902;2022-07-23T09:13:46;100942.00;;;21.37;60.54
17525;BME280;40431;52.198;9.902;2022-07-23T09:16:14;100938.75;;;21.24;60.03
17525;BME280;40431;52.198;9.902;2022-07-23T09:18:44;100939.59;;;21.06;60.20
17525;BME280;40431;52.198;9.902;2022-07-23T09:21:16;100941.56;;;21.14;60.37
17525;BME280;40431;52.198;9.902;2022-07-23T09:23:46;100937.59;;;21.26;59.84
17525;BME280;40431;52.198;9.902;2022-07-23T09:29:09;100942.09;;;21.45;59.88
17525;BME280;40431;52.198;9.902;2022-07-23T09:31:47;100948.78;;;21.25;59.67
17525;BME280;40431;52.198;9.902;2022-07-23T09:34:18;100952.13;;;21.46;59.75
17525;BME280;40431;52.198;9.902;2022-07-23T09:36:45;100940.88;;;21.58;59.54
17525;BME280;40431;52.198;9.902;2022-07-23T09:39:14;100944.53;;;21.94;58.87
17525;BME280;40431;52.198;9.902;2022-07-23T09:41:44;100941.13;;;22.00;56.62
17525;BME280;40431;52.198;9.902;2022-07-23T09:44:14;100940.03;;;21.75;57.04
17525;BME280;40431;52.198;9.902;2022-07-23T09:46:43;100944.75;;;21.65;57.04
17525;BME280;40431;52.198;9.902;2022-07-23T09:49:12;100947.59;;;21.73;58.06
17525;BME280;40431;52.198;9.902;2022-07-23T09:51:44;100944.34;;;21.96;59.07
17525;BME280;40431;52.198;9.902;2022-07-23T09:54:30;100940.63;;;22.23;58.27
17525;BME280;40431;52.198;9.902;2022-07-23T09:57:00;100929.16;;;22.36;56.87
17525;BME280;40431;52.198;9.902;2022-07-23T09:59:29;100933.44;;;22.12;56.73
17525;BME280;40431;52.198;9.902;2022-07-23T10:01:57;100933.22;;;22.06;56.93
17525;BME280;40431;52.198;9.902;2022-07-23T10:04:25;100931.56;;;21.95;57.34
17525;BME280;40431;52.198;9.902;2022-07-23T10:06:54;100936.22;;;21.76;58.23
17525;BME280;40431;52.198;9.902;2022-07-23T10:09:27;100930.72;;;21.76;58.80
17525;BME280;40431;52.198;9.902;2022-07-23T10:11:56;100932.34;;;21.87;58.19
17525;BME280;40431;52.198;9.902;2022-07-23T10:14:26;100934.31;;;21.95;56.88
17525;BME280;40431;52.198;9.902;2022-07-23T10:16:52;100931.97;;;22.00;56.44
17525;BME280;40431;52.198;9.902;2022-07-23T10:19:19;100935.91;;;21.97;56.43
17525;BME280;40431;52.198;9.902;2022-07-23T10:21:48;100930.31;;;21.71;57.21
17525;BME280;40431;52.198;9.902;2022-07-23T10:24:30;100939.81;;;21.68;58.01
17525;BME280;40431;52.198;9.902;2022-07-23T10:27:23;100936.69;;;21.90;56.86
17525;BME280;40431;52.198;9.902;2022-07-23T10:30:00;100942.44;;;22.14;57.09
17525;BME280;40431;52.198;9.902;2022-07-23T10:32:37;100933.47;;;22.57;56.21
17525;BME280;40431;52.198;9.902;2022-07-23T10:37:57;100932.44;;;22.58;53.38
17525;BME280;40431;52.198;9.902;2022-07-23T10:40:30;100935.88;;;22.60;54.85
17525;BME280;40431;52.198;9.902;2022-07-23T10:42:59;100944.19;;;22.60;53.96
17525;BME280;40431;52.198;9.902;2022-07-23T10:45:29;100943.41;;;22.49;54.87
17525;BME280;40431;52.198;9.902;2022-07-23T10:48:12;100947.72;;;22.26;55.00
17525;BME280;40431;52.198;9.902;2022-07-23T10:50:40;100944.97;;;22.26;55.79
17525;BME280;40431;52.198;9.902;2022-07-23T10:53:24;100942.50;;;22.23;54.94
17525;BME280;40431;52.198;9.902;2022-07-23T10:55:52;100936.34;;;22.29;54.46
17525;BME280;40431;52.198;9.902;2022-07-23T10:58:45;100938.94;;;22.30;54.79
17525;BME280;40431;52.198;9.902;2022-07-23T11:01:31;100936.69;;;22.52;54.51
17525;BME280;40431;52.198;9.902;2022-07-23T11:03:57;100941.56;;;22.84;55.25
17525;BME280;40431;52.198;9.902;2022-07-23T11:09:38;100929.22;;;22.71;52.74
17525;BME280;40431;52.198;9.902;2022-07-23T11:12:35;100929.00;;;22.64;52.91
17525;BME280;40431;52.198;9.902;2022-07-23T11:15:05;100938.66;;;22.60;53.09
17525;BME280;40431;52.198;9.902;2022-07-23T11:17:33;100936.28;;;22.65;53.67
17525;BME280;40431;52.198;9.902;2022-07-23T11:20:21;100926.69;;;22.51;52.92
17525;BME280;40431;52.198;9.902;2022-07-23T11:22:50;100929.66;;;22.58;53.67
17525;BME280;40431;52.198;9.902;2022-07-23T11:25:34;100928.38;;;22.78;52.95
17525;BME280;40431;52.198;9.902;2022-07-23T11:28:13;100927.59;;;22.94;53.93
17525;BME280;40431;52.198;9.902;2022-07-23T11:30:42;100927.31;;;23.06;52.62
17525;BME280;40431;52.198;9.902;2022-07-23T11:33:17;100925.84;;;23.20;52.97
17525;BME280;40431;52.198;9.902;2022-07-23T11:35:45;100924.44;;;23.15;52.20
17525;BME280;40431;52.198;9.902;2022-07-23T11:38:14;100918.84;;;23.07;52.43
17525;BME280;40431;52.198;9.902;2022-07-23T11:40:44;100925.50;;;22.88;52.49
17525;BME280;40431;52.198;9.902;2022-07-23T11:43:11;100918.31;;;22.69;53.50
17525;BME280;40431;52.198;9.902;2022-07-23T11:45:40;100919.50;;;22.66;54.04
17525;BME280;40431;52.198;9.902;2022-07-23T11:48:09;100921.66;;;22.81;54.34
17525;BME280;40431;52.198;9.902;2022-07-23T11:50:41;100919.09;;;22.88;52.76
17525;BME280;40431;52.198;9.902;2022-07-23T11:53:07;100921.84;;;22.79;52.94
17525;BME280;40431;52.198;9.902;2022-07-23T11:55:34;100923.56;;;22.80;53.65
17525;BME280;40431;52.198;9.902;2022-07-23T11:58:02;100927.78;;;22.93;52.88
17525;BME280;40431;52.198;9.902;2022-07-23T12:00:31;100923.06;;;23.20;52.69
17525;BME280;40431;52.198;9.902;2022-07-23T12:02:59;100921.88;;;23.22;51.18
17525;BME280;40431;52.198;9.902;2022-07-23T12:05:28;100919.28;;;23.21;52.11
17525;BME280;40431;52.198;9.902;2022-07-23T12:07:57;100923.66;;;23.40;51.78
17525;BME280;40431;52.198;9.902;2022-07-23T12:10:25;100927.66;;;23.45;50.76
17525;BME280;40431;52.198;9.902;2022-07-23T12:12:53;100921.25;;;23.45;51.59
17525;BME280;40431;52.198;9.902;2022-07-23T12:15:23;100922.06;;;23.29;50.98
17525;BME280;40431;52.198;9.902;2022-07-23T12:17:52;100917.31;;;23.13;52.21
17525;BME280;40431;52.198;9.902;2022-07-23T12:20:21;100923.44;;;23.25;51.77
17525;BME280;40431;52.198;9.902;2022-07-23T12:22:51;100919.88;;;23.49;51.42
17525;BME280;40431;52.198;9.902;2022-07-23T12:25:19;100917.69;;;23.77;50.56
17525;BME280;40431;52.198;9.902;2022-07-23T12:27:58;100923.53;;;23.82;49.36
17525;BME280;40431;52.198;9.902;2022-07-23T12:30:27;100917.31;;;23.80;49.22
17525;BME280;40431;52.198;9.902;2022-07-23T12:32:56;100911.44;;;23.75;50.01
17525;BME280;40431;52.198;9.902;2022-07-23T12:35:30;100911.75;;;23.56;50.53
17525;BME280;40431;52.198;9.902;2022-07-23T12:38:01;100911.44;;;23.59;49.98
17525;BME280;40431;52.198;9.902;2022-07-23T12:40:29;100915.75;;;23.61;50.30
17525;BME280;40431;52.198;9.902;2022-07-23T12:42:58;100924.06;;;23.78;50.46
17525;BME280;40431;52.198;9.902;2022-07-23T12:45:26;100925.97;;;23.77;49.06
17525;BME280;40431;52.198;9.902;2022-07-23T12:47:56;100926.66;;;23.71;49.40
17525;BME280;40431;52.198;9.902;2022-07-23T12:50:32;100916.97;;;23.67;50.00
17525;BME280;40431;52.198;9.902;2022-07-23T12:53:07;100917.47;;;23.62;49.26
17525;BME280;40431;52.198;9.902;2022-07-23T12:55:34;100932.56;;;23.76;49.96
17525;BME280;40431;52.198;9.902;2022-07-23T12:58:06;100932.72;;;23.75;49.02
17525;BME280;40431;52.198;9.902;2022-07-23T13:03:38;100930.34;;;23.96;49.38